Aérodrome :
LOGIN :

S'inscrire | Disclaimer

   EN    FR    IT 

 










Légende :    VFR   VFR Marginal   IFR   IFR Intensif   IFR Très Intensif
Visi : 
Plafond : 
>= 8 km
>= 3000ft
5 à 8 km
1000 à 3000 ft
1500m à 5 km
500 à 1000 ft
800 à 1500m
200 à 500 ft
< 800m
< 200 ft
Symboles :   Orages  Brouillard  Fortes neiges  Fortes précipitations  Vent > 20 kt
SIGMETs :   Divers  Orages  Givrage  Turbulence  Onde Orograph.  Cendres Volcan.






- Altitude de l'aérodrome : 978 ft
- Code IATA : LNZ


LOWL - Linz

DERNIER METAR :
  • 271650Z AUTO VRB01KT 3300 BR FEW002 BKN003 M01/M02 Q1022 NOSIG

METARs EXPIRÉS :
  • 271620Z AUTO VRB02KT 3900 BR BKN002 M01/M02 Q1022 NOSIG
  • 271550Z VRB01KT 4500 BR FEW002 BKN003 M01/M02 Q1022 NOSIG
  • 271520Z 22003KT 190V250 3500 BR OVC003 M01/M02 Q1022 NOSIG
  • 271450Z 35003KT 320V040 3600 BR FEW003 BKN004 M01/M02 Q1022 NOSIG
  • 271420Z VRB02KT 4700 BR BKN004 M01/M02 Q1022 NOSIG

TAF AMD TAF LOWL
Valide du 27 à 14h jusqu'au 28 à 12h UTC


271402Z 2714/2812 VRB02KT 4000 BKN004 TX01/2811Z TNM02/2800Z
TEMPO 2716/2808 2000 BKN002
PROB40
TEMPO 2720/2808 0500 FZFG BKN001
BECMG 2810/2812 08005KT 8000 BKN010



MET'MAP, la Météo Aéronautique d'un coup d'oeil ! - Copyright ORBIFLY Décembre 2007 - Disclaimer

ORBIFLY MET'MAP TEAM :

Programmation & Développement : Alexandra Zaïnal
Sur une idée originale de : Baudouin d'Aumeries
Assistance à la programmation : Marc-Olivier Méhu
Soutien technique & logistique : Manuel Goepfert

Contact : metmap@orbifly.com




SOURCES & CREDITS :

   NOAA